sensor_id;sensor_type;location;lat;lon;timestamp;temperature;humidity
23251;DHT22;11794;49.730;10.088;2024-02-15T00:01:34;9.70;99.90
23251;DHT22;11794;49.730;10.088;2024-02-15T00:03:59;9.80;99.90
23251;DHT22;11794;49.730;10.088;2024-02-15T00:06:25;9.80;99.90
23251;DHT22;11794;49.730;10.088;2024-02-15T00:08:50;9.80;99.90
23251;DHT22;11794;49.730;10.088;2024-02-15T00:11:17;9.70;99.90
23251;DHT22;11794;49.730;10.088;2024-02-15T00:13:43;9.80;99.90
23251;DHT22;11794;49.730;10.088;2024-02-15T00:16:12;9.80;99.90
23251;DHT22;11794;49.730;10.088;2024-02-15T00:18:37;9.80;99.90
23251;DHT22;11794;49.730;10.088;2024-02-15T00:21:04;9.80;99.90
23251;DHT22;11794;49.730;10.088;2024-02-15T00:23:32;9.80;99.90
23251;DHT22;11794;49.730;10.088;2024-02-15T00:25:57;9.80;99.90
23251;DHT22;11794;49.730;10.088;2024-02-15T00:28:23;9.70;99.90
23251;DHT22;11794;49.730;10.088;2024-02-15T00:30:49;9.80;99.90
23251;DHT22;11794;49.730;10.088;2024-02-15T00:33:15;9.80;99.90
23251;DHT22;11794;49.730;10.088;2024-02-15T00:35:42;9.70;99.90
23251;DHT22;11794;49.730;10.088;2024-02-15T00:38:07;9.70;99.90
23251;DHT22;11794;49.730;10.088;2024-02-15T00:40:33;9.70;99.90
23251;DHT22;11794;49.730;10.088;2024-02-15T00:42:58;9.80;99.90
23251;DHT22;11794;49.730;10.088;2024-02-15T00:45:24;9.70;99.90
23251;DHT22;11794;49.730;10.088;2024-02-15T00:47:49;9.70;99.90
23251;DHT22;11794;49.730;10.088;2024-02-15T00:50:15;9.80;99.90
23251;DHT22;11794;49.730;10.088;2024-02-15T00:52:40;9.70;99.90
23251;DHT22;11794;49.730;10.088;2024-02-15T00:55:06;9.70;99.90
23251;DHT22;11794;49.730;10.088;2024-02-15T00:57:32;9.70;99.90
23251;DHT22;11794;49.730;10.088;2024-02-15T00:59:57;9.70;99.90
23251;DHT22;11794;49.730;10.088;2024-02-15T01:02:23;9.70;99.90
23251;DHT22;11794;49.730;10.088;2024-02-15T01:04:49;9.70;99.90
23251;DHT22;11794;49.730;10.088;2024-02-15T01:07:15;9.70;99.90
23251;DHT22;11794;49.730;10.088;2024-02-15T01:09:41;9.70;99.90
23251;DHT22;11794;49.730;10.088;2024-02-15T01:12:06;9.60;99.90
23251;DHT22;11794;49.730;10.088;2024-02-15T01:14:32;9.70;99.90
23251;DHT22;11794;49.730;10.088;2024-02-15T01:16:58;9.60;99.90
23251;DHT22;11794;49.730;10.088;2024-02-15T01:19:23;9.60;99.90
23251;DHT22;11794;49.730;10.088;2024-02-15T01:21:49;9.70;99.90
23251;DHT22;11794;49.730;10.088;2024-02-15T01:24:14;9.70;99.90
23251;DHT22;11794;49.730;10.088;2024-02-15T01:26:40;9.60;99.90
23251;DHT22;11794;49.730;10.088;2024-02-15T01:29:05;9.60;99.90
23251;DHT22;11794;49.730;10.088;2024-02-15T01:31:31;9.70;99.90
23251;DHT22;11794;49.730;10.088;2024-02-15T01:33:56;9.60;99.90
23251;DHT22;11794;49.730;10.088;2024-02-15T01:36:22;9.60;99.90
23251;DHT22;11794;49.730;10.088;2024-02-15T01:38:48;9.60;99.90
23251;DHT22;11794;49.730;10.088;2024-02-15T01:41:13;9.60;99.90
23251;DHT22;11794;49.730;10.088;2024-02-15T01:43:43;9.60;99.90
23251;DHT22;11794;49.730;10.088;2024-02-15T01:46:10;9.60;99.90
23251;DHT22;11794;49.730;10.088;2024-02-15T01:48:37;9.50;99.90
23251;DHT22;11794;49.730;10.088;2024-02-15T01:51:03;9.50;99.90
23251;DHT22;11794;49.730;10.088;2024-02-15T01:53:29;9.40;99.90
23251;DHT22;11794;49.730;10.088;2024-02-15T01:55:55;9.40;99.90
23251;DHT22;11794;49.730;10.088;2024-02-15T01:58:23;9.50;99.90
23251;DHT22;11794;49.730;10.088;2024-02-15T02:00:49;9.40;99.90
23251;DHT22;11794;49.730;10.088;2024-02-15T02:03:15;9.40;99.90
23251;DHT22;11794;49.730;10.088;2024-02-15T02:05:42;9.40;99.90
23251;DHT22;11794;49.730;10.088;2024-02-15T02:08:08;9.40;99.90
23251;DHT22;11794;49.730;10.088;2024-02-15T02:10:38;9.40;99.90
23251;DHT22;11794;49.730;10.088;2024-02-15T02:13:04;9.40;99.90
23251;DHT22;11794;49.730;10.088;2024-02-15T02:15:34;9.50;99.90
23251;DHT22;11794;49.730;10.088;2024-02-15T02:18:00;9.50;99.90
23251;DHT22;11794;49.730;10.088;2024-02-15T02:20:26;9.50;99.90
23251;DHT22;11794;49.730;10.088;2024-02-15T02:22:53;9.60;99.90
23251;DHT22;11794;49.730;10.088;2024-02-15T02:25:23;9.60;99.90
23251;DHT22;11794;49.730;10.088;2024-02-15T02:27:51;9.60;99.90
23251;DHT22;11794;49.730;10.088;2024-02-15T02:30:17;9.60;99.90
23251;DHT22;11794;49.730;10.088;2024-02-15T02:32:47;9.60;99.90
23251;DHT22;11794;49.730;10.088;2024-02-15T02:35:13;9.60;99.90
23251;DHT22;11794;49.730;10.088;2024-02-15T02:37:41;9.60;99.90
23251;DHT22;11794;49.730;10.088;2024-02-15T02:40:08;9.60;99.90
23251;DHT22;11794;49.730;10.088;2024-02-15T02:45:16;9.50;99.90
23251;DHT22;11794;49.730;10.088;2024-02-15T02:47:42;9.50;99.90
23251;DHT22;11794;49.730;10.088;2024-02-15T02:50:08;9.50;99.90
23251;DHT22;11794;49.730;10.088;2024-02-15T02:52:33;9.50;99.90
23251;DHT22;11794;49.730;10.088;2024-02-15T02:54:59;9.50;99.90
23251;DHT22;11794;49.730;10.088;2024-02-15T02:57:24;9.50;99.90
23251;DHT22;11794;49.730;10.088;2024-02-15T02:59:51;9.50;99.90
23251;DHT22;11794;49.730;10.088;2024-02-15T03:02:17;9.50;99.90
23251;DHT22;11794;49.730;10.088;2024-02-15T03:04:43;9.60;99.90
23251;DHT22;11794;49.730;10.088;2024-02-15T03:07:09;9.60;99.90
23251;DHT22;11794;49.730;10.088;2024-02-15T03:09:34;9.60;99.90
23251;DHT22;11794;49.730;10.088;2024-02-15T03:12:02;9.60;99.90
23251;DHT22;11794;49.730;10.088;2024-02-15T03:14:28;9.50;99.90
23251;DHT22;11794;49.730;10.088;2024-02-15T03:16:56;9.50;99.90
23251;DHT22;11794;49.730;10.088;2024-02-15T03:19:22;9.50;99.90
23251;DHT22;11794;49.730;10.088;2024-02-15T03:21:48;9.50;99.90
23251;DHT22;11794;49.730;10.088;2024-02-15T03:24:14;9.40;99.90
23251;DHT22;11794;49.730;10.088;2024-02-15T03:26:39;9.40;99.90
23251;DHT22;11794;49.730;10.088;2024-02-15T03:29:06;9.40;99.90
23251;DHT22;11794;49.730;10.088;2024-02-15T03:31:33;9.40;99.90
23251;DHT22;11794;49.730;10.088;2024-02-15T03:34:02;9.40;99.90
23251;DHT22;11794;49.730;10.088;2024-02-15T03:36:28;9.40;99.90
23251;DHT22;11794;49.730;10.088;2024-02-15T03:38:54;9.50;99.90
23251;DHT22;11794;49.730;10.088;2024-02-15T03:41:20;9.40;99.90
23251;DHT22;11794;49.730;10.088;2024-02-15T03:43:46;9.40;99.90
23251;DHT22;11794;49.730;10.088;2024-02-15T03:46:14;9.40;99.90
23251;DHT22;11794;49.730;10.088;2024-02-15T03:48:42;9.40;99.90
23251;DHT22;11794;49.730;10.088;2024-02-15T03:51:09;9.40;99.90
23251;DHT22;11794;49.730;10.088;2024-02-15T03:53:35;9.40;99.90
23251;DHT22;11794;49.730;10.088;2024-02-15T03:56:03;9.30;99.90
23251;DHT22;11794;49.730;10.088;2024-02-15T03:58:29;9.30;99.90
23251;DHT22;11794;49.730;10.088;2024-02-15T04:00:58;9.40;99.90
23251;DHT22;11794;49.730;10.088;2024-02-15T04:03:24;9.30;99.90
23251;DHT22;11794;49.730;10.088;2024-02-15T04:05:49;9.30;99.90
23251;DHT22;11794;49.730;10.088;2024-02-15T04:08:15;9.40;99.90
23251;DHT22;11794;49.730;10.088;2024-02-15T04:10:42;9.40;99.90
23251;DHT22;11794;49.730;10.088;2024-02-15T04:13:07;9.40;99.90
23251;DHT22;11794;49.730;10.088;2024-02-15T04:15:33;9.40;99.90
23251;DHT22;11794;49.730;10.088;2024-02-15T04:17:59;9.40;99.90
23251;DHT22;11794;49.730;10.088;2024-02-15T04:20:25;9.40;99.90
23251;DHT22;11794;49.730;10.088;2024-02-15T04:22:52;9.40;99.90
23251;DHT22;11794;49.730;10.088;2024-02-15T04:25:17;9.30;99.90
23251;DHT22;11794;49.730;10.088;2024-02-15T04:27:46;9.40;99.90
23251;DHT22;11794;49.730;10.088;2024-02-15T04:30:12;9.30;99.90
23251;DHT22;11794;49.730;10.088;2024-02-15T04:32:38;9.30;99.90
23251;DHT22;11794;49.730;10.088;2024-02-15T04:35:04;9.30;99.90
23251;DHT22;11794;49.730;10.088;2024-02-15T04:37:30;9.30;99.90
23251;DHT22;11794;49.730;10.088;2024-02-15T04:39:58;9.30;99.90
23251;DHT22;11794;49.730;10.088;2024-02-15T04:42:24;9.30;99.90
23251;DHT22;11794;49.730;10.088;2024-02-15T04:44:53;9.30;99.90
23251;DHT22;11794;49.730;10.088;2024-02-15T04:47:19;9.30;99.90
23251;DHT22;11794;49.730;10.088;2024-02-15T04:49:45;9.30;99.90
23251;DHT22;11794;49.730;10.088;2024-02-15T04:52:11;9.30;99.90
23251;DHT22;11794;49.730;10.088;2024-02-15T04:54:36;9.20;99.90
23251;DHT22;11794;49.730;10.088;2024-02-15T04:57:03;9.20;99.90
23251;DHT22;11794;49.730;10.088;2024-02-15T04:59:28;9.20;99.90
23251;DHT22;11794;49.730;10.088;2024-02-15T05:01:54;9.20;99.90
23251;DHT22;11794;49.730;10.088;2024-02-15T05:04:21;9.20;99.90
23251;DHT22;11794;49.730;10.088;2024-02-15T05:06:48;9.20;99.90
23251;DHT22;11794;49.730;10.088;2024-02-15T05:09:13;9.20;99.90
23251;DHT22;11794;49.730;10.088;2024-02-15T05:11:40;9.20;99.90
23251;DHT22;11794;49.730;10.088;2024-02-15T05:14:15;9.20;99.90
23251;DHT22;11794;49.730;10.088;2024-02-15T05:16:48;9.10;99.90
23251;DHT22;11794;49.730;10.088;2024-02-15T05:19:17;9.20;99.90
23251;DHT22;11794;49.730;10.088;2024-02-15T05:21:44;9.20;99.90
23251;DHT22;11794;49.730;10.088;2024-02-15T05:24:14;9.20;99.90
23251;DHT22;11794;49.730;10.088;2024-02-15T05:26:43;9.20;99.90
23251;DHT22;11794;49.730;10.088;2024-02-15T05:29:12;9.20;99.90
23251;DHT22;11794;49.730;10.088;2024-02-15T05:31:38;9.20;99.90
23251;DHT22;11794;49.730;10.088;2024-02-15T05:34:05;9.30;99.90
23251;DHT22;11794;49.730;10.088;2024-02-15T05:36:33;9.30;99.90
23251;DHT22;11794;49.730;10.088;2024-02-15T05:38:59;9.30;99.90
23251;DHT22;11794;49.730;10.088;2024-02-15T05:41:25;9.30;99.90
23251;DHT22;11794;49.730;10.088;2024-02-15T05:43:51;9.30;99.90
23251;DHT22;11794;49.730;10.088;2024-02-15T05:46:18;9.30;99.90
23251;DHT22;11794;49.730;10.088;2024-02-15T05:48:44;9.30;99.90
23251;DHT22;11794;49.730;10.088;2024-02-15T05:51:09;9.30;99.90
23251;DHT22;11794;49.730;10.088;2024-02-15T05:53:35;9.30;99.90
23251;DHT22;11794;49.730;10.088;2024-02-15T05:56:08;9.30;99.90
23251;DHT22;11794;49.730;10.088;2024-02-15T05:58:34;9.30;99.90
23251;DHT22;11794;49.730;10.088;2024-02-15T06:01:02;9.30;99.90
23251;DHT22;11794;49.730;10.088;2024-02-15T06:03:29;9.30;99.90
23251;DHT22;11794;49.730;10.088;2024-02-15T06:05:54;9.40;99.90
23251;DHT22;11794;49.730;10.088;2024-02-15T06:08:28;9.40;99.90
23251;DHT22;11794;49.730;10.088;2024-02-15T06:10:55;9.40;99.90
23251;DHT22;11794;49.730;10.088;2024-02-15T06:13:21;9.40;99.90
23251;DHT22;11794;49.730;10.088;2024-02-15T06:15:47;9.40;99.90
23251;DHT22;11794;49.730;10.088;2024-02-15T06:18:20;9.40;99.90
23251;DHT22;11794;49.730;10.088;2024-02-15T06:20:54;9.30;99.90
23251;DHT22;11794;49.730;10.088;2024-02-15T06:23:20;9.40;99.90
23251;DHT22;11794;49.730;10.088;2024-02-15T06:25:47;9.50;99.90
23251;DHT22;11794;49.730;10.088;2024-02-15T06:28:16;9.50;99.90
23251;DHT22;11794;49.730;10.088;2024-02-15T06:31:00;9.50;99.90
23251;DHT22;11794;49.730;10.088;2024-02-15T06:33:44;9.50;99.90
23251;DHT22;11794;49.730;10.088;2024-02-15T06:36:28;9.50;99.90
23251;DHT22;11794;49.730;10.088;2024-02-15T06:39:12;9.40;99.90
23251;DHT22;11794;49.730;10.088;2024-02-15T06:41:56;9.40;99.90
23251;DHT22;11794;49.730;10.088;2024-02-15T06:44:21;9.40;99.90
23251;DHT22;11794;49.730;10.088;2024-02-15T06:46:49;9.40;99.90
23251;DHT22;11794;49.730;10.088;2024-02-15T06:49:15;9.50;99.90
23251;DHT22;11794;49.730;10.088;2024-02-15T06:51:41;9.50;99.90
23251;DHT22;11794;49.730;10.088;2024-02-15T06:54:07;9.60;99.90
23251;DHT22;11794;49.730;10.088;2024-02-15T06:56:36;9.60;99.90
23251;DHT22;11794;49.730;10.088;2024-02-15T06:59:02;9.60;99.90
23251;DHT22;11794;49.730;10.088;2024-02-15T07:01:28;9.60;99.90
23251;DHT22;11794;49.730;10.088;2024-02-15T07:03:53;9.70;99.90
23251;DHT22;11794;49.730;10.088;2024-02-15T07:06:21;9.70;99.90
23251;DHT22;11794;49.730;10.088;2024-02-15T07:08:47;9.70;99.90
23251;DHT22;11794;49.730;10.088;2024-02-15T07:11:13;9.70;99.90
23251;DHT22;11794;49.730;10.088;2024-02-15T07:13:38;9.80;99.90
23251;DHT22;11794;49.730;10.088;2024-02-15T07:16:07;9.70;99.90
23251;DHT22;11794;49.730;10.088;2024-02-15T07:18:33;9.80;99.90
23251;DHT22;11794;49.730;10.088;2024-02-15T07:20:59;9.70;99.90
23251;DHT22;11794;49.730;10.088;2024-02-15T07:23:26;9.80;99.90
23251;DHT22;11794;49.730;10.088;2024-02-15T07:25:52;9.80;99.90
23251;DHT22;11794;49.730;10.088;2024-02-15T07:28:19;9.80;99.90
23251;DHT22;11794;49.730;10.088;2024-02-15T07:30:46;9.80;99.90
23251;DHT22;11794;49.730;10.088;2024-02-15T07:33:16;9.80;99.90
23251;DHT22;11794;49.730;10.088;2024-02-15T07:35:43;9.80;99.90
23251;DHT22;11794;49.730;10.088;2024-02-15T07:38:09;9.90;99.90
23251;DHT22;11794;49.730;10.088;2024-02-15T07:40:35;9.90;99.90
23251;DHT22;11794;49.730;10.088;2024-02-15T07:43:01;9.90;99.90
23251;DHT22;11794;49.730;10.088;2024-02-15T07:45:28;10.00;99.90
23251;DHT22;11794;49.730;10.088;2024-02-15T07:47:54;10.00;99.90
23251;DHT22;11794;49.730;10.088;2024-02-15T07:50:20;10.10;99.90
23251;DHT22;11794;49.730;10.088;2024-02-15T07:52:48;10.10;99.90
23251;DHT22;11794;49.730;10.088;2024-02-15T07:55:14;10.20;99.90
23251;DHT22;11794;49.730;10.088;2024-02-15T07:57:40;10.30;99.90
23251;DHT22;11794;49.730;10.088;2024-02-15T08:00:06;10.30;99.90
23251;DHT22;11794;49.730;10.088;2024-02-15T08:02:37;10.50;99.90
23251;DHT22;11794;49.730;10.088;2024-02-15T08:05:04;10.60;99.90
23251;DHT22;11794;49.730;10.088;2024-02-15T08:07:31;10.70;99.90
23251;DHT22;11794;49.730;10.088;2024-02-15T08:10:00;10.80;99.90
23251;DHT22;11794;49.730;10.088;2024-02-15T08:12:25;10.80;99.90
23251;DHT22;11794;49.730;10.088;2024-02-15T08:14:51;11.00;99.90
23251;DHT22;11794;49.730;10.088;2024-02-15T08:17:17;11.20;99.90
23251;DHT22;11794;49.730;10.088;2024-02-15T08:19:42;11.30;99.90
23251;DHT22;11794;49.730;10.088;2024-02-15T08:22:08;11.30;99.90
23251;DHT22;11794;49.730;10.088;2024-02-15T08:24:34;11.30;99.90
23251;DHT22;11794;49.730;10.088;2024-02-15T08:27:01;11.20;99.90
23251;DHT22;11794;49.730;10.088;2024-02-15T08:29:26;11.20;99.90
23251;DHT22;11794;49.730;10.088;2024-02-15T08:31:52;11.10;99.90
23251;DHT22;11794;49.730;10.088;2024-02-15T08:34:18;11.10;99.90
23251;DHT22;11794;49.730;10.088;2024-02-15T08:36:45;11.10;99.90
23251;DHT22;11794;49.730;10.088;2024-02-15T08:39:10;11.10;99.90
23251;DHT22;11794;49.730;10.088;2024-02-15T08:41:38;11.00;99.90
23251;DHT22;11794;49.730;10.088;2024-02-15T08:44:04;11.10;99.90
23251;DHT22;11794;49.730;10.088;2024-02-15T08:46:34;11.10;99.90
23251;DHT22;11794;49.730;10.088;2024-02-15T08:49:01;11.10;99.90
23251;DHT22;11794;49.730;10.088;2024-02-15T08:51:28;11.20;99.90
23251;DHT22;11794;49.730;10.088;2024-02-15T08:53:55;11.20;99.90
23251;DHT22;11794;49.730;10.088;2024-02-15T08:56:21;11.20;99.90
23251;DHT22;11794;49.730;10.088;2024-02-15T08:58:48;11.30;99.90
23251;DHT22;11794;49.730;10.088;2024-02-15T09:01:14;11.20;99.90
23251;DHT22;11794;49.730;10.088;2024-02-15T09:03:40;11.40;99.90
23251;DHT22;11794;49.730;10.088;2024-02-15T09:06:05;11.40;99.90
23251;DHT22;11794;49.730;10.088;2024-02-15T09:08:33;11.40;99.90
23251;DHT22;11794;49.730;10.088;2024-02-15T09:10:58;11.40;99.90
23251;DHT22;11794;49.730;10.088;2024-02-15T09:13:24;11.40;99.90
23251;DHT22;11794;49.730;10.088;2024-02-15T09:15:50;11.50;99.90
23251;DHT22;11794;49.730;10.088;2024-02-15T09:18:15;11.60;99.90
23251;DHT22;11794;49.730;10.088;2024-02-15T09:20:43;11.60;99.90
23251;DHT22;11794;49.730;10.088;2024-02-15T09:23:10;11.60;99.90
23251;DHT22;11794;49.730;10.088;2024-02-15T09:25:41;11.70;99.90
23251;DHT22;11794;49.730;10.088;2024-02-15T09:28:10;11.70;99.90
23251;DHT22;11794;49.730;10.088;2024-02-15T09:30:35;11.80;99.90
23251;DHT22;11794;49.730;10.088;2024-02-15T09:33:01;11.90;99.90
23251;DHT22;11794;49.730;10.088;2024-02-15T09:35:31;12.00;99.90
23251;DHT22;11794;49.730;10.088;2024-02-15T09:37:57;12.00;99.90
23251;DHT22;11794;49.730;10.088;2024-02-15T09:40:22;12.00;99.90
23251;DHT22;11794;49.730;10.088;2024-02-15T09:42:52;12.10;99.90
23251;DHT22;11794;49.730;10.088;2024-02-15T09:45:18;12.20;99.90
23251;DHT22;11794;49.730;10.088;2024-02-15T09:47:46;12.20;99.90
23251;DHT22;11794;49.730;10.088;2024-02-15T09:50:16;12.20;99.90
23251;DHT22;11794;49.730;10.088;2024-02-15T09:52:52;12.30;99.90
23251;DHT22;11794;49.730;10.088;2024-02-15T09:55:20;12.40;99.90
23251;DHT22;11794;49.730;10.088;2024-02-15T09:57:49;12.40;99.90
23251;DHT22;11794;49.730;10.088;2024-02-15T10:00:15;12.50;99.90
23251;DHT22;11794;49.730;10.088;2024-02-15T10:02:42;12.60;99.90
23251;DHT22;11794;49.730;10.088;2024-02-15T10:05:10;12.70;99.90
23251;DHT22;11794;49.730;10.088;2024-02-15T10:07:39;12.60;99.90
23251;DHT22;11794;49.730;10.088;2024-02-15T10:12:47;12.80;99.90
23251;DHT22;11794;49.730;10.088;2024-02-15T10:15:37;12.90;99.90
23251;DHT22;11794;49.730;10.088;2024-02-15T10:18:04;13.00;99.90
23251;DHT22;11794;49.730;10.088;2024-02-15T10:20:31;13.10;99.90
23251;DHT22;11794;49.730;10.088;2024-02-15T10:25:28;13.10;99.90
23251;DHT22;11794;49.730;10.088;2024-02-15T10:28:08;13.10;99.90
23251;DHT22;11794;49.730;10.088;2024-02-15T10:30:42;13.20;99.90
23251;DHT22;11794;49.730;10.088;2024-02-15T10:33:27;13.30;99.90
23251;DHT22;11794;49.730;10.088;2024-02-15T10:36:06;13.50;99.90
23251;DHT22;11794;49.730;10.088;2024-02-15T10:38:33;13.70;99.90
23251;DHT22;11794;49.730;10.088;2024-02-15T10:41:06;13.80;99.90
23251;DHT22;11794;49.730;10.088;2024-02-15T10:43:33;14.00;99.90
23251;DHT22;11794;49.730;10.088;2024-02-15T10:46:00;14.40;99.90
23251;DHT22;11794;49.730;10.088;2024-02-15T10:48:26;14.70;99.90
23251;DHT22;11794;49.730;10.088;2024-02-15T10:50:56;14.90;99.90
23251;DHT22;11794;49.730;10.088;2024-02-15T10:53:26;14.90;99.90
23251;DHT22;11794;49.730;10.088;2024-02-15T10:58:32;16.30;99.90
23251;DHT22;11794;49.730;10.088;2024-02-15T11:01:06;17.50;99.90
23251;DHT22;11794;49.730;10.088;2024-02-15T11:03:35;18.00;99.90
23251;DHT22;11794;49.730;10.088;2024-02-15T11:06:02;18.20;99.90
23251;DHT22;11794;49.730;10.088;2024-02-15T11:08:30;18.10;99.90
23251;DHT22;11794;49.730;10.088;2024-02-15T11:10:57;18.40;99.90
23251;DHT22;11794;49.730;10.088;2024-02-15T11:13:24;18.70;99.90
23251;DHT22;11794;49.730;10.088;2024-02-15T11:15:50;18.80;99.90
23251;DHT22;11794;49.730;10.088;2024-02-15T11:18:41;19.20;99.90
23251;DHT22;11794;49.730;10.088;2024-02-15T11:21:09;19.10;99.90
23251;DHT22;11794;49.730;10.088;2024-02-15T11:23:35;19.00;99.90
23251;DHT22;11794;49.730;10.088;2024-02-15T11:26:01;19.10;99.90
23251;DHT22;11794;49.730;10.088;2024-02-15T11:28:36;19.30;99.90
23251;DHT22;11794;49.730;10.088;2024-02-15T11:31:02;19.70;99.90
23251;DHT22;11794;49.730;10.088;2024-02-15T11:33:32;19.90;99.90
23251;DHT22;11794;49.730;10.088;2024-02-15T11:36:11;20.30;99.90
23251;DHT22;11794;49.730;10.088;2024-02-15T11:38:38;20.30;99.90
23251;DHT22;11794;49.730;10.088;2024-02-15T11:41:07;20.20;99.90
23251;DHT22;11794;49.730;10.088;2024-02-15T11:46:15;20.80;99.90
23251;DHT22;11794;49.730;10.088;2024-02-15T11:48:53;21.50;99.90
23251;DHT22;11794;49.730;10.088;2024-02-15T11:51:31;20.70;99.90
23251;DHT22;11794;49.730;10.088;2024-02-15T11:54:11;20.30;99.90
23251;DHT22;11794;49.730;10.088;2024-02-15T11:56:56;20.90;99.90
23251;DHT22;11794;49.730;10.088;2024-02-15T11:59:39;21.90;99.90
23251;DHT22;11794;49.730;10.088;2024-02-15T12:02:19;21.90;99.90
23251;DHT22;11794;49.730;10.088;2024-02-15T12:05:04;21.60;99.90
23251;DHT22;11794;49.730;10.088;2024-02-15T12:07:48;21.20;99.90
23251;DHT22;11794;49.730;10.088;2024-02-15T12:10:32;20.60;99.90
23251;DHT22;11794;49.730;10.088;2024-02-15T12:13:19;20.40;99.90
23251;DHT22;11794;49.730;10.088;2024-02-15T12:16:03;19.40;99.90
23251;DHT22;11794;49.730;10.088;2024-02-15T12:18:48;18.80;99.90
23251;DHT22;11794;49.730;10.088;2024-02-15T12:21:21;18.30;99.90
23251;DHT22;11794;49.730;10.088;2024-02-15T12:23:48;18.70;99.90
23251;DHT22;11794;49.730;10.088;2024-02-15T12:26:18;18.80;99.90
23251;DHT22;11794;49.730;10.088;2024-02-15T12:28:44;18.80;99.90
23251;DHT22;11794;49.730;10.088;2024-02-15T12:31:15;19.10;99.90
23251;DHT22;11794;49.730;10.088;2024-02-15T12:33:40;20.50;99.90
23251;DHT22;11794;49.730;10.088;2024-02-15T12:36:07;21.70;99.90
23251;DHT22;11794;49.730;10.088;2024-02-15T12:38:33;21.40;99.90
23251;DHT22;11794;49.730;10.088;2024-02-15T12:41:20;21.10;99.90
23251;DHT22;11794;49.730;10.088;2024-02-15T12:43:45;20.30;99.90
23251;DHT22;11794;49.730;10.088;2024-02-15T12:46:11;19.80;99.90
23251;DHT22;11794;49.730;10.088;2024-02-15T12:48:37;19.20;99.90
23251;DHT22;11794;49.730;10.088;2024-02-15T12:51:13;18.20;99.90
23251;DHT22;11794;49.730;10.088;2024-02-15T12:53:40;17.80;99.90
23251;DHT22;11794;49.730;10.088;2024-02-15T12:56:07;17.40;99.90
23251;DHT22;11794;49.730;10.088;2024-02-15T12:58:34;17.10;99.90
23251;DHT22;11794;49.730;10.088;2024-02-15T13:01:00;17.40;99.90
23251;DHT22;11794;49.730;10.088;2024-02-15T13:03:26;17.70;99.90
23251;DHT22;11794;49.730;10.088;2024-02-15T13:05:52;18.40;99.90
23251;DHT22;11794;49.730;10.088;2024-02-15T13:08:18;19.20;99.90
23251;DHT22;11794;49.730;10.088;2024-02-15T13:10:43;19.20;99.90
23251;DHT22;11794;49.730;10.088;2024-02-15T13:13:09;20.80;99.90
23251;DHT22;11794;49.730;10.088;2024-02-15T13:15:35;21.50;99.90
23251;DHT22;11794;49.730;10.088;2024-02-15T13:18:02;21.00;99.90
23251;DHT22;11794;49.730;10.088;2024-02-15T13:20:29;21.00;99.90
23251;DHT22;11794;49.730;10.088;2024-02-15T13:23:00;20.90;99.90
23251;DHT22;11794;49.730;10.088;2024-02-15T13:25:28;20.30;99.90
23251;DHT22;11794;49.730;10.088;2024-02-15T13:27:54;19.60;99.90
23251;DHT22;11794;49.730;10.088;2024-02-15T13:30:19;19.40;99.90
23251;DHT22;11794;49.730;10.088;2024-02-15T13:32:49;19.10;99.90
23251;DHT22;11794;49.730;10.088;2024-02-15T13:35:17;19.60;99.90
23251;DHT22;11794;49.730;10.088;2024-02-15T13:37:50;19.80;99.90
23251;DHT22;11794;49.730;10.088;2024-02-15T13:40:18;19.60;99.90
23251;DHT22;11794;49.730;10.088;2024-02-15T13:42:46;19.30;99.90
23251;DHT22;11794;49.730;10.088;2024-02-15T13:47:57;18.90;99.90
23251;DHT22;11794;49.730;10.088;2024-02-15T13:50:23;18.50;99.90
23251;DHT22;11794;49.730;10.088;2024-02-15T13:52:49;18.60;99.90
23251;DHT22;11794;49.730;10.088;2024-02-15T13:55:18;18.90;99.90
23251;DHT22;11794;49.730;10.088;2024-02-15T13:57:45;18.70;99.90
23251;DHT22;11794;49.730;10.088;2024-02-15T14:00:13;18.90;99.90
23251;DHT22;11794;49.730;10.088;2024-02-15T14:02:53;18.60;99.90
23251;DHT22;11794;49.730;10.088;2024-02-15T14:05:19;18.40;99.90
23251;DHT22;11794;49.730;10.088;2024-02-15T14:07:52;18.70;99.90
23251;DHT22;11794;49.730;10.088;2024-02-15T14:10:31;19.20;99.90
23251;DHT22;11794;49.730;10.088;2024-02-15T14:12:57;18.70;99.90
23251;DHT22;11794;49.730;10.088;2024-02-15T14:15:27;17.70;99.90
23251;DHT22;11794;49.730;10.088;2024-02-15T14:17:53;17.50;99.90
23251;DHT22;11794;49.730;10.088;2024-02-15T14:20:18;17.60;99.90
23251;DHT22;11794;49.730;10.088;2024-02-15T14:22:47;17.50;99.90
23251;DHT22;11794;49.730;10.088;2024-02-15T14:25:24;17.30;99.90
23251;DHT22;11794;49.730;10.088;2024-02-15T14:27:51;17.00;99.90
23251;DHT22;11794;49.730;10.088;2024-02-15T14:30:18;16.80;99.90
23251;DHT22;11794;49.730;10.088;2024-02-15T14:33:02;16.70;99.90
23251;DHT22;11794;49.730;10.088;2024-02-15T14:35:35;16.70;99.90
23251;DHT22;11794;49.730;10.088;2024-02-15T14:38:02;16.60;99.90
23251;DHT22;11794;49.730;10.088;2024-02-15T14:40:31;16.50;99.90
23251;DHT22;11794;49.730;10.088;2024-02-15T14:42:56;16.20;99.90
23251;DHT22;11794;49.730;10.088;2024-02-15T14:45:22;15.90;99.90
23251;DHT22;11794;49.730;10.088;2024-02-15T14:47:47;15.70;99.90
23251;DHT22;11794;49.730;10.088;2024-02-15T14:50:13;15.70;99.90
23251;DHT22;11794;49.730;10.088;2024-02-15T14:52:39;15.50;99.90
23251;DHT22;11794;49.730;10.088;2024-02-15T14:55:05;15.50;99.90
23251;DHT22;11794;49.730;10.088;2024-02-15T14:57:36;15.60;99.90
23251;DHT22;11794;49.730;10.088;2024-02-15T15:00:06;15.70;99.90
23251;DHT22;11794;49.730;10.088;2024-02-15T15:02:44;15.60;99.90
23251;DHT22;11794;49.730;10.088;2024-02-15T15:05:12;15.50;99.90
23251;DHT22;11794;49.730;10.088;2024-02-15T15:07:56;15.30;99.90
23251;DHT22;11794;49.730;10.088;2024-02-15T15:10:40;15.40;99.90
23251;DHT22;11794;49.730;10.088;2024-02-15T15:13:24;15.40;99.90
23251;DHT22;11794;49.730;10.088;2024-02-15T15:15:50;15.40;99.90
23251;DHT22;11794;49.730;10.088;2024-02-15T15:18:15;15.50;99.90
23251;DHT22;11794;49.730;10.088;2024-02-15T15:20:41;15.60;99.90
23251;DHT22;11794;49.730;10.088;2024-02-15T15:23:06;15.60;99.90
23251;DHT22;11794;49.730;10.088;2024-02-15T15:25:33;15.50;99.90
23251;DHT22;11794;49.730;10.088;2024-02-15T15:27:59;15.70;99.90
23251;DHT22;11794;49.730;10.088;2024-02-15T15:30:24;15.60;99.90
23251;DHT22;11794;49.730;10.088;2024-02-15T15:32:50;15.40;99.90
23251;DHT22;11794;49.730;10.088;2024-02-15T15:35:16;15.50;99.90
23251;DHT22;11794;49.730;10.088;2024-02-15T15:37:44;15.40;99.90
23251;DHT22;11794;49.730;10.088;2024-02-15T15:40:11;15.30;99.90
23251;DHT22;11794;49.730;10.088;2024-02-15T15:42:37;15.40;99.90
23251;DHT22;11794;49.730;10.088;2024-02-15T15:45:04;15.20;99.90